Thule Air Base, Greenland
Current Conditions -  °F | °C
As of 11:58 PM on Saturday 25 Oct 2014 (Local Time) from BGTL Reporting Station
Overcast Overcast  
Wind Chill:   Ceiling: 3100
Heat Index: 12°   Visibility: 6mi
Dew Point:   Wind: 6mph
Humidity: 72%   Direction: 90°E
Pressure: 29.92"   Gusts: NA
Location:  76.53°N, 68.7°W
Report Text: BGTL 260258Z AUTO 09005KT 9999 OVC031 M11/M15 A2992 RMK AO2 SLP121 T11131154 50001 $
Loading
Personal Weather Stations






























Interactive Weather Map
Tropical Storm Tracking
New forecast layout! Learn more

10-Day Weather Forecast

Advertisements
Track Severe Weather on mobile